createdAt,value
2019-04-26T00:03:00.995Z,40.23
2019-04-26T00:05:34.970Z,37.45
2019-04-26T00:08:04.605Z,37.80
2019-04-26T00:10:36.735Z,35.20
2019-04-26T00:13:07.775Z,36.63
2019-04-26T00:15:40.042Z,35.50
2019-04-26T00:18:11.727Z,35.00
2019-04-26T00:20:43.637Z,36.77
2019-04-26T00:23:14.431Z,38.13
2019-04-26T00:25:45.359Z,36.95
2019-04-26T00:28:16.914Z,34.38
2019-04-26T00:30:47.879Z,34.10
2019-04-26T00:33:19.411Z,31.57
2019-04-26T00:35:50.388Z,31.93
2019-04-26T00:38:22.315Z,31.02
2019-04-26T00:40:54.366Z,31.50
2019-04-26T00:43:25.998Z,32.78
2019-04-26T00:45:58.009Z,37.33
2019-04-26T00:48:30.686Z,34.13
2019-04-26T00:51:02.452Z,33.88
2019-04-26T00:53:35.949Z,47.13
2019-04-26T00:56:09.231Z,27.65
2019-04-26T00:58:41.486Z,25.85
2019-04-26T01:01:15.080Z,24.52
2019-04-26T01:03:46.545Z,23.62
2019-04-26T01:06:21.095Z,24.00
2019-04-26T01:08:56.668Z,22.25
2019-04-26T01:11:27.978Z,21.87
2019-04-26T01:13:59.002Z,20.80
2019-04-26T01:16:30.887Z,20.50
2019-04-26T01:19:05.681Z,20.90
2019-04-26T01:21:38.866Z,20.02
2019-04-26T01:24:12.206Z,21.75
2019-04-26T01:26:44.365Z,20.57
2019-04-26T01:29:18.615Z,22.60
2019-04-26T01:31:55.500Z,20.35
2019-04-26T01:34:28.254Z,21.75
2019-04-26T01:36:59.965Z,21.93
2019-04-26T01:39:32.027Z,21.68
2019-04-26T01:42:02.922Z,21.15
2019-04-26T01:44:38.716Z,22.00
2019-04-26T01:47:13.346Z,21.75
2019-04-26T01:49:44.432Z,21.77
2019-04-26T01:52:16.781Z,21.95
2019-04-26T01:54:48.681Z,20.95
2019-04-26T01:57:22.245Z,22.73
2019-04-26T01:59:57.281Z,22.62
2019-04-26T02:02:29.844Z,23.30
2019-04-26T02:05:13.813Z,22.85
2019-04-26T02:07:45.824Z,22.10
2019-04-26T02:10:25.285Z,21.75
2019-04-26T02:12:57.915Z,22.05
2019-04-26T02:15:31.327Z,22.52
2019-04-26T02:18:02.999Z,21.77
2019-04-26T02:20:37.661Z,21.17
2019-04-26T02:23:09.863Z,22.70
2019-04-26T02:25:40.862Z,23.62
2019-04-26T02:28:11.812Z,23.27
2019-04-26T02:30:42.847Z,22.32
2019-04-26T02:33:14.428Z,23.65
2019-04-26T02:35:45.435Z,23.12
2019-04-26T02:38:39.534Z,24.85
2019-04-26T02:41:11.981Z,24.20
2019-04-26T02:43:45.168Z,24.80
2019-04-26T02:46:19.684Z,24.30
2019-04-26T02:48:54.196Z,25.25
2019-04-26T02:51:28.468Z,24.82
2019-04-26T02:54:00.302Z,27.65
2019-04-26T02:56:34.098Z,28.87
2019-04-26T02:59:08.007Z,28.30
2019-04-26T03:01:40.159Z,28.23
2019-04-26T03:04:11.148Z,28.25
2019-04-26T03:06:43.897Z,28.87
2019-04-26T03:09:17.410Z,29.67
2019-04-26T03:11:51.106Z,29.42
2019-04-26T03:14:21.821Z,28.05
2019-04-26T03:16:56.627Z,27.87
2019-04-26T03:19:31.482Z,28.25
2019-04-26T03:22:04.637Z,29.35
2019-04-26T03:24:39.269Z,27.67
2019-04-26T03:27:12.520Z,30.80
2019-04-26T03:29:45.760Z,28.12
2019-04-26T03:32:19.113Z,28.75
2019-04-26T03:34:55.167Z,28.75
2019-04-26T03:37:28.150Z,31.87
2019-04-26T03:40:02.726Z,28.55
2019-04-26T03:42:37.047Z,33.23
2019-04-26T03:45:10.973Z,31.60
2019-04-26T03:47:45.881Z,30.30
2019-04-26T03:50:18.943Z,30.17
2019-04-26T03:52:52.545Z,30.95
2019-04-26T03:55:24.267Z,30.10
2019-04-26T03:57:58.745Z,30.00
2019-04-26T04:00:30.300Z,29.55
2019-04-26T04:03:03.128Z,29.85
2019-04-26T04:05:39.608Z,29.00
2019-04-26T04:08:12.372Z,28.55
2019-04-26T04:10:47.704Z,28.90
2019-04-26T04:13:20.718Z,29.52
2019-04-26T04:15:54.015Z,29.50
2019-04-26T04:18:27.172Z,28.17
2019-04-26T04:21:01.824Z,28.20
2019-04-26T04:23:35.223Z,28.65
2019-04-26T04:26:09.533Z,28.00
2019-04-26T04:28:44.064Z,26.75
2019-04-26T04:31:17.642Z,26.77
2019-04-26T04:33:52.619Z,26.70
2019-04-26T04:36:28.623Z,25.77
2019-04-26T04:39:11.116Z,26.00
2019-04-26T04:41:37.456Z,27.60
2019-04-26T04:44:10.893Z,26.37
2019-04-26T04:46:47.398Z,27.02
2019-04-26T04:49:19.915Z,26.20
2019-04-26T04:51:54.168Z,25.72
2019-04-26T04:54:27.533Z,26.85
2019-04-26T04:57:01.014Z,26.80
2019-04-26T04:59:34.838Z,25.90
2019-04-26T05:02:09.625Z,25.75
2019-04-26T05:04:45.163Z,25.25
2019-04-26T05:07:19.877Z,25.60
2019-04-26T05:09:53.694Z,24.23
2019-04-26T05:12:27.248Z,25.52
2019-04-26T05:15:01.419Z,25.52
2019-04-26T05:17:35.890Z,25.20
2019-04-26T05:20:09.918Z,25.43
2019-04-26T05:22:44.715Z,21.90
2019-04-26T05:25:33.627Z,21.15
2019-04-26T05:28:11.492Z,21.67
2019-04-26T05:30:46.605Z,21.73
2019-04-26T05:33:20.511Z,20.70
2019-04-26T05:35:55.245Z,22.17
2019-04-26T05:38:38.558Z,19.52
2019-04-26T05:41:10.965Z,20.02
2019-04-26T05:43:45.748Z,22.02
2019-04-26T05:46:20.596Z,20.90
2019-04-26T05:48:54.003Z,22.15
2019-04-26T05:51:28.609Z,22.90
2019-04-26T05:54:03.661Z,22.67
2019-04-26T05:56:36.495Z,19.67
2019-04-26T05:59:10.368Z,19.95
2019-04-26T06:01:43.504Z,20.52
2019-04-26T06:04:17.923Z,19.52
2019-04-26T06:06:53.114Z,19.40
2019-04-26T06:09:27.931Z,18.45
2019-04-26T06:12:02.307Z,19.02
2019-04-26T06:14:43.263Z,22.15
2019-04-26T06:17:17.704Z,21.05
2019-04-26T06:19:53.207Z,26.20
2019-04-26T06:22:26.568Z,31.35
2019-04-26T06:25:00.428Z,29.10
2019-04-26T06:27:35.603Z,23.65
2019-04-26T06:30:10.464Z,21.20
2019-04-26T06:32:55.930Z,22.85
2019-04-26T06:35:20.191Z,22.62
2019-04-26T06:37:55.345Z,23.07
2019-04-26T06:40:28.618Z,21.68
2019-04-26T06:43:03.021Z,21.48
2019-04-26T06:45:38.064Z,21.62
2019-04-26T06:48:12.700Z,21.07
2019-04-26T06:50:49.388Z,21.57
2019-04-26T06:53:26.052Z,20.62
2019-04-26T06:56:02.978Z,21.90
2019-04-26T06:58:36.351Z,22.98
2019-04-26T07:01:11.369Z,21.02
2019-04-26T07:03:45.282Z,21.33
2019-04-26T07:06:18.541Z,21.23
2019-04-26T07:08:57.533Z,20.68
2019-04-26T07:11:26.490Z,20.35
2019-04-26T07:14:00.608Z,19.23
2019-04-26T07:16:43.590Z,18.98
2019-04-26T07:19:17.526Z,19.10
2019-04-26T07:21:49.116Z,19.00
2019-04-26T07:24:25.106Z,30.77
2019-04-26T07:26:57.469Z,18.37
2019-04-26T07:29:30.944Z,19.12
2019-04-26T07:32:05.239Z,17.95
2019-04-26T07:34:41.249Z,18.50
2019-04-26T07:37:14.400Z,19.05
2019-04-26T07:39:48.863Z,18.80
2019-04-26T07:42:23.314Z,18.40
2019-04-26T07:44:58.322Z,27.85
2019-04-26T07:47:31.630Z,19.60
2019-04-26T07:50:05.084Z,19.55
2019-04-26T07:52:38.860Z,18.30
2019-04-26T07:55:12.805Z,18.57
2019-04-26T07:57:46.186Z,19.73
2019-04-26T08:00:18.293Z,19.15
2019-04-26T08:02:52.941Z,19.67
2019-04-26T08:05:27.715Z,20.40
2019-04-26T08:08:02.468Z,19.45
2019-04-26T08:10:36.121Z,20.25
2019-04-26T08:13:10.007Z,20.25
2019-04-26T08:15:45.188Z,20.12
2019-04-26T08:18:20.191Z,19.57
2019-04-26T08:20:54.295Z,19.37
2019-04-26T08:23:41.079Z,19.92
2019-04-26T08:26:02.661Z,23.60
2019-04-26T08:28:36.743Z,21.52
2019-04-26T08:31:10.863Z,21.70
2019-04-26T08:33:48.979Z,18.73
2019-04-26T08:36:23.190Z,20.37
2019-04-26T08:38:54.053Z,24.12
2019-04-26T08:41:26.222Z,25.65
2019-04-26T08:44:03.755Z,32.38
2019-04-26T08:46:37.296Z,34.78
2019-04-26T08:49:13.039Z,28.00
2019-04-26T08:51:46.658Z,26.90
2019-04-26T08:54:20.794Z,28.98
2019-04-26T08:56:54.100Z,30.95
2019-04-26T08:59:27.777Z,27.15
2019-04-26T09:02:02.131Z,23.40
2019-04-26T09:04:36.730Z,20.92
2019-04-26T09:07:11.733Z,22.50
2019-04-26T09:09:56.487Z,23.07
2019-04-26T09:12:23.116Z,23.95
2019-04-26T09:14:54.205Z,25.05
2019-04-26T09:17:27.820Z,25.55
2019-04-26T09:19:58.246Z,27.40
2019-04-26T09:22:30.669Z,32.70
2019-04-26T09:25:07.294Z,23.67
2019-04-26T09:27:39.526Z,18.35
2019-04-26T09:30:12.440Z,18.48
2019-04-26T09:32:44.493Z,17.35
2019-04-26T09:35:16.325Z,17.55
2019-04-26T09:37:47.263Z,16.93
2019-04-26T09:40:21.532Z,18.25
2019-04-26T09:42:51.851Z,17.00
2019-04-26T09:45:23.988Z,19.82
2019-04-26T09:48:00.724Z,19.25
2019-04-26T09:50:33.041Z,19.73
2019-04-26T09:53:03.783Z,21.12
2019-04-26T09:55:35.490Z,20.50
2019-04-26T09:58:08.641Z,20.32
2019-04-26T10:00:39.964Z,19.00
2019-04-26T10:03:10.832Z,19.25
2019-04-26T10:05:41.638Z,20.50
2019-04-26T10:08:14.462Z,21.35
2019-04-26T10:10:45.273Z,20.57
2019-04-26T10:13:17.330Z,20.77
2019-04-26T10:15:47.892Z,20.75
2019-04-26T10:18:20.276Z,21.42
2019-04-26T10:20:52.188Z,21.20
2019-04-26T10:23:22.877Z,21.97
2019-04-26T10:25:53.653Z,22.02
2019-04-26T10:28:24.981Z,23.35
2019-04-26T10:30:55.681Z,24.87
2019-04-26T10:33:26.495Z,26.62
2019-04-26T10:35:57.842Z,25.37
2019-04-26T10:38:28.494Z,25.05
2019-04-26T10:40:59.118Z,23.32
2019-04-26T10:43:29.976Z,23.50
2019-04-26T10:46:00.480Z,23.15
2019-04-26T10:48:31.357Z,22.27
2019-04-26T10:51:03.381Z,21.85
2019-04-26T10:53:35.629Z,22.85
2019-04-26T10:56:08.320Z,22.87
2019-04-26T10:58:40.461Z,23.15
2019-04-26T11:01:14.273Z,21.97
2019-04-26T11:03:45.044Z,24.07
2019-04-26T11:06:15.744Z,29.80
2019-04-26T11:08:46.703Z,27.62
2019-04-26T11:11:17.495Z,24.92
2019-04-26T11:13:48.144Z,24.23
2019-04-26T11:16:18.912Z,24.65
2019-04-26T11:18:49.691Z,25.82
2019-04-26T11:21:20.816Z,26.23
2019-04-26T11:23:52.613Z,26.33
2019-04-26T11:26:23.375Z,27.70
2019-04-26T11:28:55.788Z,28.07
2019-04-26T11:31:27.768Z,29.72
2019-04-26T11:34:05.164Z,28.60
2019-04-26T11:36:30.598Z,29.15
2019-04-26T11:39:04.898Z,27.90
2019-04-26T11:41:34.043Z,28.07
2019-04-26T11:44:04.834Z,28.23
2019-04-26T11:46:44.613Z,28.25
2019-04-26T11:49:08.311Z,29.05
2019-04-26T11:51:39.187Z,28.62
2019-04-26T11:54:10.215Z,25.95
2019-04-26T11:56:40.892Z,27.75
2019-04-26T11:59:11.597Z,26.68
2019-04-26T12:01:42.434Z,27.73
2019-04-26T12:04:14.412Z,26.57
2019-04-26T12:06:46.218Z,27.90
2019-04-26T12:09:18.111Z,28.23
2019-04-26T12:11:50.843Z,39.78
2019-04-26T12:14:21.085Z,38.98
2019-04-26T12:16:58.868Z,36.45
2019-04-26T12:19:23.807Z,38.23
2019-04-26T12:21:54.783Z,31.48
2019-04-26T12:24:29.444Z,25.12
2019-04-26T12:26:57.842Z,23.92
2019-04-26T12:29:28.679Z,24.72
2019-04-26T12:31:59.719Z,25.12
2019-04-26T12:34:30.505Z,24.82
2019-04-26T12:37:01.157Z,22.50
2019-04-26T12:39:32.336Z,17.12
2019-04-26T12:42:08.259Z,15.85
2019-04-26T12:44:41.073Z,11.70
2019-04-26T12:47:11.594Z,11.25
2019-04-26T12:49:42.250Z,10.85
2019-04-26T12:52:13.117Z,11.30
2019-04-26T12:54:44.489Z,10.90
2019-04-26T12:57:16.389Z,10.25
2019-04-26T12:59:47.258Z,10.50
2019-04-26T13:02:20.823Z,10.40
2019-04-26T13:04:50.273Z,10.15
2019-04-26T13:07:24.309Z,10.75
2019-04-26T13:09:57.178Z,10.58
2019-04-26T13:12:29.860Z,10.90
2019-04-26T13:15:05.212Z,10.50
2019-04-26T13:17:37.501Z,11.18
2019-04-26T13:20:09.281Z,10.88
2019-04-26T13:22:45.953Z,11.22
2019-04-26T13:25:20.110Z,11.43
2019-04-26T13:27:45.640Z,11.70
2019-04-26T13:30:16.941Z,11.28
2019-04-26T13:32:49.232Z,11.73
2019-04-26T13:35:20.745Z,11.80
2019-04-26T13:37:51.569Z,11.68
2019-04-26T13:40:25.729Z,12.40
2019-04-26T13:42:54.721Z,11.97
2019-04-26T13:45:26.826Z,12.15
2019-04-26T13:47:58.839Z,12.23
2019-04-26T13:50:30.942Z,13.22
2019-04-26T13:53:01.686Z,14.07
2019-04-26T13:55:33.849Z,15.63
2019-04-26T13:58:04.898Z,16.45
2019-04-26T14:00:35.673Z,17.35
2019-04-26T14:03:06.731Z,17.73
2019-04-26T14:05:37.539Z,17.20
2019-04-26T14:08:08.517Z,17.17
2019-04-26T14:10:39.283Z,17.87
2019-04-26T14:13:09.999Z,18.05
2019-04-26T14:15:43.967Z,18.95
2019-04-26T14:18:13.339Z,19.32
2019-04-26T14:20:44.143Z,18.27
2019-04-26T14:23:16.474Z,18.30
2019-04-26T14:25:48.651Z,18.40
2019-04-26T14:28:20.409Z,18.40
2019-04-26T14:30:51.930Z,18.30
2019-04-26T14:33:22.744Z,18.50
2019-04-26T14:35:53.926Z,18.23
2019-04-26T14:38:27.878Z,18.35
2019-04-26T14:41:04.233Z,18.85
2019-04-26T14:43:40.585Z,17.98
2019-04-26T14:46:01.976Z,18.50
2019-04-26T14:48:36.127Z,17.60
2019-04-26T14:51:08.309Z,17.87
2019-04-26T14:53:38.015Z,18.23
2019-04-26T14:56:08.953Z,18.12
2019-04-26T14:58:39.732Z,18.42
2019-04-26T15:01:12.440Z,18.73
2019-04-26T15:03:44.711Z,18.17
2019-04-26T15:06:20.115Z,16.77
2019-04-26T15:08:49.084Z,17.27
2019-04-26T15:11:20.756Z,16.60
2019-04-26T15:13:51.730Z,17.77
2019-04-26T15:16:24.386Z,16.62
2019-04-26T15:18:54.716Z,18.07
2019-04-26T15:21:27.435Z,16.82
2019-04-26T15:23:59.417Z,16.80
2019-04-26T15:26:30.209Z,17.15
2019-04-26T15:29:02.536Z,16.70
2019-04-26T15:31:33.149Z,16.95
2019-04-26T15:34:04.024Z,17.17
2019-04-26T15:36:35.198Z,16.48
2019-04-26T15:39:09.101Z,17.12
2019-04-26T15:41:43.007Z,17.30
2019-04-26T15:44:14.862Z,16.30
2019-04-26T15:46:48.523Z,15.43
2019-04-26T15:49:22.328Z,15.28
2019-04-26T15:51:56.368Z,15.65
2019-04-26T15:54:24.864Z,15.20
2019-04-26T15:56:55.946Z,14.63
2019-04-26T15:59:26.910Z,15.10
2019-04-26T16:01:57.879Z,14.50
2019-04-26T16:04:28.658Z,15.15
2019-04-26T16:06:59.605Z,14.23
2019-04-26T16:09:32.279Z,14.13
2019-04-26T16:12:03.711Z,13.55
2019-04-26T16:14:36.863Z,12.45
2019-04-26T16:17:07.296Z,12.82
2019-04-26T16:19:38.211Z,12.65
2019-04-26T16:22:09.226Z,13.80
2019-04-26T16:24:40.163Z,13.88
2019-04-26T16:27:12.545Z,13.35
2019-04-26T16:29:46.757Z,13.03
2019-04-26T16:32:21.938Z,14.23
2019-04-26T16:34:53.974Z,13.05
2019-04-26T16:37:25.082Z,13.62
2019-04-26T16:39:56.387Z,14.33
2019-04-26T16:42:26.984Z,13.05
2019-04-26T16:45:04.004Z,13.40
2019-04-26T16:47:30.225Z,13.45
2019-04-26T16:50:03.684Z,13.62
2019-04-26T16:52:42.295Z,13.08
2019-04-26T16:55:18.302Z,13.68
2019-04-26T16:57:43.912Z,14.35
2019-04-26T17:00:16.208Z,14.35
2019-04-26T17:02:46.074Z,15.93
2019-04-26T17:05:21.014Z,16.02
2019-04-26T17:07:48.838Z,16.02
2019-04-26T17:10:20.873Z,16.02
2019-04-26T17:12:54.248Z,15.25
2019-04-26T17:15:24.290Z,15.32
2019-04-26T17:17:55.296Z,15.40
2019-04-26T17:20:26.203Z,14.33
2019-04-26T17:23:00.851Z,14.60
2019-04-26T17:25:32.136Z,13.58
2019-04-26T17:28:03.453Z,14.07
2019-04-26T17:30:40.985Z,14.18
2019-04-26T17:33:07.070Z,14.18
2019-04-26T17:35:40.944Z,14.45
2019-04-26T17:38:11.451Z,14.53
2019-04-26T17:40:42.977Z,15.63
2019-04-26T17:43:14.010Z,15.38
2019-04-26T17:45:44.766Z,14.95
2019-04-26T17:48:15.704Z,15.65
2019-04-26T17:50:46.663Z,15.35
2019-04-26T17:53:28.112Z,15.40
2019-04-26T17:55:54.180Z,14.87
2019-04-26T17:58:27.580Z,14.20
2019-04-26T18:00:56.489Z,14.38
2019-04-26T18:03:26.869Z,13.75
2019-04-26T18:06:00.681Z,13.68
2019-04-26T18:08:37.061Z,12.80
2019-04-26T18:11:02.260Z,13.58
2019-04-26T18:13:33.271Z,13.30
2019-04-26T18:16:03.990Z,13.32
2019-04-26T18:18:36.045Z,12.98
2019-04-26T18:21:08.339Z,13.28
2019-04-26T18:23:39.186Z,13.65
2019-04-26T18:26:10.027Z,13.08
2019-04-26T18:28:49.367Z,13.98
2019-04-26T18:31:16.431Z,13.13
2019-04-26T18:33:46.677Z,13.62
2019-04-26T18:36:17.773Z,13.13
2019-04-26T18:38:48.760Z,13.65
2019-04-26T18:41:23.154Z,12.98
2019-04-26T18:43:54.146Z,12.93
2019-04-26T18:46:26.071Z,12.98
2019-04-26T18:48:56.760Z,12.18
2019-04-26T18:51:27.930Z,13.25
2019-04-26T18:54:00.320Z,13.13
2019-04-26T18:56:33.734Z,13.70
2019-04-26T18:59:07.172Z,12.85
2019-04-26T19:01:40.662Z,13.60
2019-04-26T19:04:12.546Z,13.18
2019-04-26T19:06:42.280Z,13.32
2019-04-26T19:09:12.296Z,13.65
2019-04-26T19:11:48.586Z,13.50
2019-04-26T19:14:17.012Z,13.68
2019-04-26T19:16:50.633Z,13.90
2019-04-26T19:19:24.213Z,14.05
2019-04-26T19:21:54.765Z,14.87
2019-04-26T19:24:25.755Z,14.10
2019-04-26T19:26:56.653Z,14.38
2019-04-26T19:29:33.574Z,13.98
2019-04-26T19:32:01.417Z,13.98
2019-04-26T19:34:32.322Z,14.15
2019-04-26T19:37:03.479Z,15.38
2019-04-26T19:39:35.790Z,13.53
2019-04-26T19:42:07.381Z,14.65
2019-04-26T19:44:38.366Z,13.80
2019-04-26T19:47:12.176Z,12.93
2019-04-26T19:49:44.164Z,13.50
2019-04-26T19:52:16.290Z,14.58
2019-04-26T19:54:47.178Z,13.90
2019-04-26T19:57:19.310Z,13.95
2019-04-26T19:59:50.075Z,14.18
2019-04-26T20:02:21.077Z,14.43
2019-04-26T20:04:52.099Z,13.80
2019-04-26T20:07:24.248Z,14.03
2019-04-26T20:09:56.250Z,14.40
2019-04-26T20:12:29.464Z,14.18
2019-04-26T20:15:00.051Z,14.63
2019-04-26T20:17:31.018Z,14.75
2019-04-26T20:20:02.083Z,14.30
2019-04-26T20:22:33.109Z,15.05
2019-04-26T20:25:04.006Z,14.53
2019-04-26T20:27:34.838Z,13.93
2019-04-26T20:30:08.425Z,15.45
2019-04-26T20:32:44.013Z,14.63
2019-04-26T20:35:14.691Z,14.73
2019-04-26T20:37:46.404Z,16.07
2019-04-26T20:40:22.624Z,14.28
2019-04-26T20:42:51.189Z,14.45
2019-04-26T20:45:22.473Z,15.45
2019-04-26T20:47:55.644Z,15.55
2019-04-26T20:50:28.589Z,15.93
2019-04-26T20:53:00.839Z,14.90
2019-04-26T20:55:30.712Z,15.05
2019-04-26T20:58:07.002Z,14.58
2019-04-26T21:00:36.524Z,15.83
2019-04-26T21:03:20.149Z,16.15
2019-04-26T21:05:46.079Z,15.60
2019-04-26T21:08:12.411Z,14.93
2019-04-26T21:10:43.558Z,15.32
2019-04-26T21:13:14.742Z,16.50
2019-04-26T21:15:55.997Z,18.32
2019-04-26T21:18:17.788Z,16.90
2019-04-26T21:20:48.793Z,15.40
2019-04-26T21:23:19.742Z,15.95
2019-04-26T21:25:50.264Z,16.00
2019-04-26T21:28:22.415Z,15.18
2019-04-26T21:30:54.581Z,15.08
2019-04-26T21:33:28.643Z,16.77
2019-04-26T21:36:01.861Z,18.95
2019-04-26T21:38:34.209Z,16.48
2019-04-26T21:41:11.142Z,16.35
2019-04-26T21:43:38.295Z,16.75
2019-04-26T21:46:14.555Z,16.75
2019-04-26T21:48:44.576Z,15.90
2019-04-26T21:51:16.067Z,15.45
2019-04-26T21:53:47.243Z,16.15
2019-04-26T21:56:18.141Z,17.77
2019-04-26T21:58:49.010Z,17.85
2019-04-26T22:01:23.479Z,15.20
2019-04-26T22:03:58.329Z,15.80
2019-04-26T22:06:28.770Z,16.85
2019-04-26T22:09:02.753Z,15.68
2019-04-26T22:11:33.416Z,15.95
2019-04-26T22:14:05.649Z,16.75
2019-04-26T22:16:38.176Z,15.98
2019-04-26T22:19:10.347Z,15.88
2019-04-26T22:21:43.533Z,16.32
2019-04-26T22:24:15.811Z,16.37
2019-04-26T22:26:48.107Z,16.42
